createdAt,value
2019-03-19T00:00:18.774Z,3.78
2019-03-19T00:02:48.192Z,3.94
2019-03-19T00:05:17.547Z,3.88
2019-03-19T00:07:47.141Z,3.97
2019-03-19T00:10:16.556Z,3.90
2019-03-19T00:12:46.047Z,3.94
2019-03-19T00:15:15.605Z,3.68
2019-03-19T00:17:45.097Z,3.60
2019-03-19T00:20:14.560Z,3.48
2019-03-19T00:22:44.028Z,3.42
2019-03-19T00:25:13.581Z,3.29
2019-03-19T00:27:42.940Z,3.37
2019-03-19T00:30:12.892Z,3.39
2019-03-19T00:32:42.333Z,3.42
2019-03-19T00:35:11.912Z,3.29
2019-03-19T00:37:41.373Z,3.44
2019-03-19T00:40:11.186Z,3.45
2019-03-19T00:42:40.552Z,3.41
2019-03-19T00:45:10.352Z,3.50
2019-03-19T00:47:39.959Z,3.58
2019-03-19T00:50:09.644Z,3.47
2019-03-19T00:52:39.093Z,3.52
2019-03-19T00:55:09.486Z,3.43
2019-03-19T00:57:39.511Z,3.38
2019-03-19T01:00:09.325Z,3.31
2019-03-19T01:02:38.779Z,3.37
2019-03-19T01:05:08.860Z,3.29
2019-03-19T01:07:38.308Z,3.33
2019-03-19T01:10:08.821Z,3.44
2019-03-19T01:12:38.271Z,3.24
2019-03-19T01:15:09.150Z,3.04
2019-03-19T01:17:38.649Z,3.12
2019-03-19T01:20:09.884Z,3.14
2019-03-19T01:22:39.672Z,3.20
2019-03-19T01:25:10.151Z,3.16
2019-03-19T01:27:39.539Z,3.08
2019-03-19T01:30:10.238Z,3.19
2019-03-19T01:32:39.731Z,3.11
2019-03-19T01:35:09.208Z,3.04
2019-03-19T01:37:38.748Z,3.02
2019-03-19T01:40:08.315Z,3.02
2019-03-19T01:42:37.798Z,2.95
2019-03-19T01:45:08.017Z,2.78
2019-03-19T01:47:37.359Z,2.79
2019-03-19T01:50:07.341Z,2.89
2019-03-19T01:52:36.786Z,2.98
2019-03-19T01:55:07.069Z,3.03
2019-03-19T01:57:36.542Z,3.09
2019-03-19T02:00:07.205Z,3.05
2019-03-19T02:02:36.581Z,3.07
2019-03-19T02:05:06.591Z,3.01
2019-03-19T02:07:36.042Z,3.02
2019-03-19T02:10:06.338Z,3.00
2019-03-19T02:12:35.812Z,2.99
2019-03-19T02:15:05.628Z,2.96
2019-03-19T02:17:35.102Z,2.92
2019-03-19T02:20:04.960Z,2.88
2019-03-19T02:22:34.509Z,2.73
2019-03-19T02:25:04.286Z,2.66
2019-03-19T02:27:33.775Z,2.68
2019-03-19T02:30:03.310Z,2.65
2019-03-19T02:32:32.806Z,2.66
2019-03-19T02:35:02.294Z,2.69
2019-03-19T02:37:31.756Z,2.62
2019-03-19T02:40:01.241Z,2.68
2019-03-19T02:42:30.694Z,2.71
2019-03-19T02:45:00.499Z,2.65
2019-03-19T02:47:30.110Z,2.62
2019-03-19T02:49:59.596Z,2.63
2019-03-19T02:52:29.049Z,2.65
2019-03-19T02:54:58.538Z,2.71
2019-03-19T02:57:28.010Z,2.76
2019-03-19T02:59:57.447Z,2.74
2019-03-19T03:02:26.909Z,2.77
2019-03-19T03:04:56.377Z,2.74
2019-03-19T03:07:26.016Z,2.73
2019-03-19T03:09:55.462Z,2.77
2019-03-19T03:12:24.972Z,2.86
2019-03-19T03:14:54.429Z,2.83
2019-03-19T03:17:23.920Z,2.80
2019-03-19T03:19:53.406Z,2.76
2019-03-19T03:22:22.864Z,2.80
2019-03-19T03:24:52.342Z,2.78
2019-03-19T03:27:21.787Z,2.77
2019-03-19T03:29:51.261Z,2.79
2019-03-19T03:32:20.726Z,2.85
2019-03-19T03:34:50.200Z,2.75
2019-03-19T03:37:19.652Z,2.63
2019-03-19T03:39:49.136Z,2.50
2019-03-19T03:42:18.595Z,2.62
2019-03-19T03:44:48.201Z,2.68
2019-03-19T03:47:17.676Z,2.77
2019-03-19T03:49:47.121Z,2.75
2019-03-19T03:52:16.580Z,2.78
2019-03-19T03:54:46.024Z,2.78
2019-03-19T03:57:15.514Z,2.76
2019-03-19T03:59:44.977Z,2.75
2019-03-19T04:02:14.423Z,2.73
2019-03-19T04:04:43.891Z,2.41
2019-03-19T04:07:13.348Z,2.46
2019-03-19T04:09:42.811Z,2.50
2019-03-19T04:12:12.337Z,2.56
2019-03-19T04:14:41.827Z,2.41
2019-03-19T04:17:11.273Z,2.37
2019-03-19T04:19:40.750Z,2.55
2019-03-19T04:22:10.237Z,2.62
2019-03-19T04:24:39.659Z,2.63
2019-03-19T04:27:15.810Z,2.83
2019-03-19T04:29:40.212Z,2.86
2019-03-19T04:32:10.129Z,2.80
2019-03-19T04:34:39.581Z,2.92
2019-03-19T04:37:09.072Z,2.93
2019-03-19T04:39:38.552Z,2.87
2019-03-19T04:42:08.014Z,2.86
2019-03-19T04:44:37.495Z,2.74
2019-03-19T04:47:06.940Z,2.79
2019-03-19T04:49:36.557Z,2.82
2019-03-19T04:52:06.298Z,2.81
2019-03-19T04:54:35.717Z,2.71
2019-03-19T04:57:05.191Z,2.59
2019-03-19T04:59:34.652Z,2.51
2019-03-19T05:02:04.151Z,2.78
2019-03-19T05:04:33.628Z,2.68
2019-03-19T05:07:03.121Z,2.75
2019-03-19T05:09:32.571Z,2.15
2019-03-19T05:12:02.110Z,2.60
2019-03-19T05:14:31.559Z,2.70
2019-03-19T05:17:01.009Z,2.85
2019-03-19T05:19:30.561Z,2.65
2019-03-19T05:22:00.011Z,2.81
2019-03-19T05:24:29.648Z,2.87
2019-03-19T05:26:59.100Z,2.89
2019-03-19T05:29:28.610Z,3.01
2019-03-19T05:31:58.074Z,3.00
2019-03-19T05:34:27.749Z,2.96
2019-03-19T05:36:57.220Z,2.90
2019-03-19T05:39:26.852Z,2.81
2019-03-19T05:41:56.317Z,2.58
2019-03-19T05:44:25.797Z,2.64
2019-03-19T05:46:55.298Z,2.53
2019-03-19T05:49:24.883Z,2.49
2019-03-19T05:51:54.356Z,2.61
2019-03-19T05:54:23.802Z,2.64
2019-03-19T05:56:53.287Z,2.68
2019-03-19T05:59:22.822Z,2.60
2019-03-19T06:01:52.310Z,2.53
2019-03-19T06:04:21.777Z,2.53
2019-03-19T06:06:51.811Z,2.39
2019-03-19T06:09:21.379Z,2.45
2019-03-19T06:11:50.837Z,2.29
2019-03-19T06:14:20.356Z,2.28
2019-03-19T06:16:49.955Z,2.35
2019-03-19T06:19:19.426Z,2.36
2019-03-19T06:21:48.913Z,2.49
2019-03-19T06:24:18.387Z,2.49
2019-03-19T06:26:47.872Z,2.52
2019-03-19T06:29:17.371Z,2.71
2019-03-19T06:31:46.861Z,2.83
2019-03-19T06:34:16.314Z,2.87
2019-03-19T06:36:45.937Z,2.92
2019-03-19T06:39:15.399Z,3.00
2019-03-19T06:41:44.964Z,3.14
2019-03-19T06:44:14.707Z,3.14
2019-03-19T06:46:44.193Z,3.23
2019-03-19T06:49:13.662Z,3.27
2019-03-19T06:51:43.226Z,3.25
2019-03-19T06:54:12.713Z,3.32
2019-03-19T06:56:42.192Z,3.39
2019-03-19T06:59:12.096Z,3.51
2019-03-19T07:01:41.549Z,3.56
2019-03-19T07:04:11.003Z,3.72
2019-03-19T07:06:40.391Z,3.86
2019-03-19T07:09:10.240Z,3.97
2019-03-19T07:11:39.756Z,3.84
2019-03-19T07:14:09.129Z,3.88
2019-03-19T07:16:38.505Z,4.09
2019-03-19T07:19:07.973Z,4.14
2019-03-19T07:21:37.379Z,4.14
2019-03-19T07:24:07.050Z,3.96
2019-03-19T07:26:36.415Z,3.94
2019-03-19T07:29:05.815Z,4.32
2019-03-19T07:31:35.768Z,4.29
2019-03-19T07:34:06.446Z,4.26
2019-03-19T07:36:36.795Z,4.48
2019-03-19T07:39:09.149Z,4.65
2019-03-19T07:41:38.518Z,4.67
2019-03-19T07:44:07.906Z,4.81
2019-03-19T07:46:37.508Z,4.80
2019-03-19T07:49:06.869Z,4.65
2019-03-19T07:51:36.450Z,4.58
2019-03-19T07:54:05.819Z,4.72
2019-03-19T07:56:35.239Z,4.90
2019-03-19T07:59:04.685Z,4.93
2019-03-19T08:01:34.046Z,4.90
2019-03-19T08:04:05.108Z,4.91
2019-03-19T08:06:34.670Z,4.77
2019-03-19T08:09:05.549Z,4.97
2019-03-19T08:11:36.830Z,5.28
2019-03-19T08:14:06.352Z,5.20
2019-03-19T08:16:35.772Z,5.28
2019-03-19T08:19:05.138Z,5.65
2019-03-19T08:21:34.609Z,5.74
2019-03-19T08:24:04.020Z,5.53
2019-03-19T08:26:40.740Z,5.73
2019-03-19T08:29:10.109Z,5.75
2019-03-19T08:31:39.540Z,5.63
2019-03-19T08:34:08.907Z,5.83
2019-03-19T08:36:38.301Z,5.83
2019-03-19T08:39:08.737Z,5.95
2019-03-19T08:41:38.089Z,5.83
2019-03-19T08:44:07.752Z,5.77
2019-03-19T08:46:37.203Z,5.94
2019-03-19T08:49:06.934Z,5.78
2019-03-19T08:51:36.333Z,5.82
2019-03-19T08:54:05.952Z,5.98
2019-03-19T08:56:35.349Z,5.93
2019-03-19T08:59:06.105Z,6.32
2019-03-19T09:01:35.990Z,6.78
2019-03-19T09:04:05.433Z,6.84
2019-03-19T09:06:35.135Z,6.94
2019-03-19T09:09:06.564Z,7.01
2019-03-19T09:11:36.648Z,7.06
2019-03-19T09:14:06.277Z,7.00
2019-03-19T09:16:35.784Z,7.16
2019-03-19T09:19:05.315Z,7.37
2019-03-19T09:21:34.742Z,7.20
2019-03-19T09:24:04.245Z,7.47
2019-03-19T09:26:33.626Z,7.21
2019-03-19T09:29:03.049Z,7.31
2019-03-19T09:31:32.450Z,7.21
2019-03-19T09:34:01.988Z,7.03
2019-03-19T09:36:31.364Z,6.72
2019-03-19T09:39:00.754Z,6.93
2019-03-19T09:41:30.190Z,7.00
2019-03-19T09:43:59.546Z,6.87
2019-03-19T09:46:29.081Z,6.84
2019-03-19T09:48:58.565Z,7.07
2019-03-19T09:51:28.100Z,7.04
2019-03-19T09:53:58.080Z,7.25
2019-03-19T09:56:27.471Z,7.44
2019-03-19T09:58:57.066Z,7.92
2019-03-19T10:01:26.461Z,7.86
2019-03-19T10:03:55.820Z,7.81
2019-03-19T10:06:25.294Z,7.35
2019-03-19T10:08:55.280Z,7.45
2019-03-19T10:11:24.727Z,7.18
2019-03-19T10:13:54.207Z,7.39
2019-03-19T10:16:23.619Z,7.75
2019-03-19T10:18:52.987Z,7.72
2019-03-19T10:21:22.381Z,8.11
2019-03-19T10:23:51.900Z,8.34
2019-03-19T10:26:21.301Z,8.33
2019-03-19T10:28:50.727Z,8.31
2019-03-19T10:31:20.134Z,8.35
2019-03-19T10:33:49.556Z,7.97
2019-03-19T10:36:19.030Z,8.31
2019-03-19T10:38:48.439Z,8.51
2019-03-19T10:41:17.817Z,9.03
2019-03-19T10:43:47.289Z,9.05
2019-03-19T10:46:17.430Z,8.84
2019-03-19T10:48:47.462Z,8.94
2019-03-19T10:51:16.915Z,9.44
2019-03-19T10:53:46.363Z,9.52
2019-03-19T10:56:15.821Z,9.52
2019-03-19T10:58:45.198Z,9.46
2019-03-19T11:01:14.622Z,8.93
2019-03-19T11:03:44.014Z,8.93
2019-03-19T11:06:13.807Z,8.60
2019-03-19T11:08:43.196Z,8.60
2019-03-19T11:11:12.603Z,8.32
2019-03-19T11:13:42.152Z,8.32
2019-03-19T11:16:11.773Z,8.21
2019-03-19T11:18:47.022Z,7.86
2019-03-19T11:21:16.618Z,7.88
2019-03-19T11:23:46.013Z,8.18
2019-03-19T11:26:15.490Z,8.33
2019-03-19T11:28:44.880Z,8.33
2019-03-19T11:31:14.310Z,8.33
2019-03-19T11:33:47.804Z,8.49
2019-03-19T11:36:17.289Z,8.84
2019-03-19T11:38:46.692Z,9.07
2019-03-19T11:41:16.122Z,9.33
2019-03-19T11:43:45.689Z,9.60
2019-03-19T11:46:15.197Z,9.60
2019-03-19T11:48:44.594Z,10.02
2019-03-19T11:51:14.039Z,10.30
2019-03-19T11:53:43.469Z,10.30
2019-03-19T11:56:13.126Z,10.49
2019-03-19T11:58:42.584Z,10.37
2019-03-19T12:01:12.049Z,9.52
2019-03-19T12:03:41.548Z,9.09
2019-03-19T12:06:11.127Z,8.99
2019-03-19T12:08:42.034Z,9.07
2019-03-19T12:11:11.515Z,8.90
2019-03-19T12:13:40.956Z,9.55
2019-03-19T12:16:12.078Z,10.29
2019-03-19T12:18:44.841Z,10.29
2019-03-19T12:21:15.502Z,11.17
2019-03-19T12:23:45.053Z,11.77
2019-03-19T12:26:14.713Z,12.16
2019-03-19T12:28:44.328Z,12.35
2019-03-19T12:31:13.792Z,13.37
2019-03-19T12:33:43.186Z,11.62
2019-03-19T12:36:12.661Z,11.11
2019-03-19T12:38:42.036Z,11.07
2019-03-19T12:41:11.434Z,10.48
2019-03-19T12:43:40.829Z,10.37
2019-03-19T12:46:10.361Z,9.82
2019-03-19T12:48:39.750Z,9.65
2019-03-19T12:51:09.121Z,9.19
2019-03-19T12:53:38.681Z,9.39
2019-03-19T12:56:08.166Z,9.39
2019-03-19T12:58:37.667Z,9.45
2019-03-19T13:01:07.261Z,8.94
2019-03-19T13:03:37.025Z,9.93
2019-03-19T13:06:06.698Z,11.43
2019-03-19T13:08:36.079Z,12.35
2019-03-19T13:11:05.577Z,13.32
2019-03-19T13:13:34.986Z,14.48
2019-03-19T13:16:04.711Z,15.02
2019-03-19T13:18:34.087Z,16.07
2019-03-19T13:21:03.595Z,18.05
2019-03-19T13:23:34.981Z,17.09
2019-03-19T13:26:04.596Z,17.15
2019-03-19T13:28:34.250Z,17.23
2019-03-19T13:31:03.703Z,16.67
2019-03-19T13:33:33.107Z,16.29
2019-03-19T13:36:02.490Z,17.63
2019-03-19T13:38:31.915Z,17.19
2019-03-19T13:41:01.328Z,15.70
2019-03-19T13:43:30.710Z,13.97
2019-03-19T13:46:00.565Z,12.45
2019-03-19T13:48:29.974Z,11.39
2019-03-19T13:50:59.481Z,10.45
2019-03-19T13:53:28.981Z,10.48
2019-03-19T13:55:58.440Z,10.30
2019-03-19T13:58:28.560Z,10.99
2019-03-19T14:00:57.989Z,10.71
2019-03-19T14:03:27.367Z,10.25
2019-03-19T14:05:56.806Z,10.92
2019-03-19T14:08:26.281Z,10.64
2019-03-19T14:10:55.766Z,11.18
2019-03-19T14:13:25.136Z,13.63
2019-03-19T14:15:54.518Z,13.17
2019-03-19T14:18:23.938Z,13.52
2019-03-19T14:20:53.332Z,14.36
2019-03-19T14:23:22.816Z,15.59
2019-03-19T14:25:52.450Z,15.25
2019-03-19T14:28:22.060Z,15.18
2019-03-19T14:30:51.545Z,14.06
2019-03-19T14:33:21.056Z,13.05
2019-03-19T14:35:50.497Z,12.08
2019-03-19T14:38:19.996Z,12.08
2019-03-19T14:40:49.408Z,11.63
2019-03-19T14:43:18.818Z,10.44
2019-03-19T14:45:48.256Z,10.49
2019-03-19T14:48:17.708Z,10.35
2019-03-19T14:50:47.101Z,9.94
2019-03-19T14:53:16.497Z,9.93
2019-03-19T14:55:45.866Z,9.69
2019-03-19T14:58:15.358Z,9.38
2019-03-19T15:00:45.057Z,9.72
2019-03-19T15:03:14.473Z,9.43
2019-03-19T15:05:43.956Z,9.43
2019-03-19T15:08:13.350Z,9.40
2019-03-19T15:10:42.891Z,9.40
2019-03-19T15:13:12.511Z,9.45
2019-03-19T15:15:41.963Z,9.01
2019-03-19T15:18:11.402Z,9.01
2019-03-19T15:20:40.815Z,9.03
2019-03-19T15:23:10.559Z,9.03
2019-03-19T15:25:39.923Z,8.90
2019-03-19T15:28:09.450Z,8.88
2019-03-19T15:30:38.838Z,8.88
2019-03-19T15:33:08.219Z,9.14
2019-03-19T15:35:37.610Z,9.17
2019-03-19T15:38:07.087Z,9.15
2019-03-19T15:40:36.577Z,9.12
2019-03-19T15:43:06.022Z,9.16
2019-03-19T15:45:35.504Z,9.02
2019-03-19T15:48:04.887Z,9.02
2019-03-19T15:50:34.291Z,9.02
2019-03-19T15:53:03.713Z,9.04
2019-03-19T15:55:33.191Z,9.02
2019-03-19T15:58:02.590Z,9.02
2019-03-19T16:00:31.998Z,9.31
2019-03-19T16:03:01.409Z,9.22
2019-03-19T16:05:30.804Z,9.54
2019-03-19T16:08:00.232Z,9.54
2019-03-19T16:10:29.718Z,9.52
2019-03-19T16:12:59.160Z,9.38
2019-03-19T16:15:28.567Z,9.87
2019-03-19T16:17:58.197Z,9.87
2019-03-19T16:20:27.629Z,10.97
2019-03-19T16:22:57.010Z,10.97
2019-03-19T16:25:26.404Z,11.04
2019-03-19T16:27:55.780Z,10.60
2019-03-19T16:30:25.193Z,10.68
2019-03-19T16:32:54.689Z,10.10
2019-03-19T16:35:24.196Z,10.04
2019-03-19T16:37:53.556Z,9.85
2019-03-19T16:40:22.992Z,9.59
2019-03-19T16:42:52.394Z,9.59
2019-03-19T16:45:22.002Z,9.44
2019-03-19T16:47:51.526Z,9.44
2019-03-19T16:50:20.922Z,9.37
2019-03-19T16:52:50.530Z,9.37
2019-03-19T16:55:19.967Z,8.98
2019-03-19T16:57:49.331Z,8.98
2019-03-19T17:00:18.905Z,8.84
2019-03-19T17:02:48.291Z,8.61
2019-03-19T17:05:18.336Z,8.51
2019-03-19T17:07:47.921Z,8.58
2019-03-19T17:10:17.785Z,8.69
2019-03-19T17:12:47.266Z,8.58
2019-03-19T17:15:16.733Z,8.54
2019-03-19T17:17:46.127Z,8.64
2019-03-19T17:20:15.628Z,8.64
2019-03-19T17:22:45.135Z,8.32
2019-03-19T17:25:15.424Z,8.28
2019-03-19T17:27:45.038Z,8.17
2019-03-19T17:30:20.087Z,8.26
2019-03-19T17:32:49.492Z,8.14
2019-03-19T17:35:18.882Z,8.10
2019-03-19T17:37:48.565Z,8.12
2019-03-19T17:40:17.976Z,7.97
2019-03-19T17:42:47.354Z,7.97
2019-03-19T17:45:17.531Z,7.82
2019-03-19T17:47:47.215Z,7.85
2019-03-19T17:50:18.277Z,7.83
2019-03-19T17:52:50.252Z,7.87
2019-03-19T17:55:19.641Z,8.04
2019-03-19T17:57:49.019Z,7.84
2019-03-19T18:00:24.462Z,7.78
2019-03-19T18:02:53.965Z,7.63
2019-03-19T18:05:24.125Z,7.67
2019-03-19T18:07:53.630Z,7.49
2019-03-19T18:10:23.023Z,7.49
2019-03-19T18:12:52.433Z,7.50
2019-03-19T18:15:21.803Z,7.48
2019-03-19T18:17:51.634Z,7.48
2019-03-19T18:20:21.019Z,7.28
2019-03-19T18:22:50.377Z,7.40
2019-03-19T18:25:19.788Z,7.58
2019-03-19T18:27:49.341Z,7.41
2019-03-19T18:30:18.745Z,7.13
2019-03-19T18:32:48.142Z,7.17
2019-03-19T18:35:17.976Z,7.07
2019-03-19T18:37:47.367Z,7.03
2019-03-19T18:40:16.943Z,7.00
2019-03-19T18:42:46.344Z,7.08
2019-03-19T18:45:15.718Z,7.09
2019-03-19T18:47:45.175Z,7.10
2019-03-19T18:50:14.751Z,7.09
2019-03-19T18:52:44.344Z,6.97
2019-03-19T18:55:13.905Z,6.94
2019-03-19T18:57:43.308Z,6.85
2019-03-19T19:00:14.654Z,6.80
2019-03-19T19:02:49.699Z,6.89
2019-03-19T19:05:15.303Z,6.95
2019-03-19T19:07:44.697Z,6.90
2019-03-19T19:10:14.337Z,6.90
2019-03-19T19:12:43.933Z,6.73
2019-03-19T19:15:14.673Z,6.63
2019-03-19T19:17:44.164Z,6.55
2019-03-19T19:20:13.766Z,6.62
2019-03-19T19:22:43.198Z,6.51
2019-03-19T19:25:13.752Z,6.50
2019-03-19T19:27:43.154Z,6.27
2019-03-19T19:30:17.570Z,6.34
2019-03-19T19:32:46.946Z,6.36
2019-03-19T19:35:16.408Z,6.25
2019-03-19T19:37:45.856Z,5.99
2019-03-19T19:40:15.958Z,5.86
2019-03-19T19:42:45.520Z,5.88
2019-03-19T19:45:15.097Z,5.86
2019-03-19T19:47:44.605Z,5.79
2019-03-19T19:50:14.931Z,5.83
2019-03-19T19:52:44.417Z,5.90
2019-03-19T19:55:14.064Z,5.94
2019-03-19T19:57:43.654Z,5.89
2019-03-19T20:00:15.328Z,5.77
2019-03-19T20:02:44.865Z,5.92
2019-03-19T20:05:14.925Z,5.88
2019-03-19T20:07:44.344Z,5.88
2019-03-19T20:10:15.992Z,5.68
2019-03-19T20:12:45.455Z,5.63
2019-03-19T20:15:14.848Z,5.58
2019-03-19T20:17:44.503Z,5.67
2019-03-19T20:20:15.540Z,5.55
2019-03-19T20:22:45.050Z,5.45
2019-03-19T20:25:14.709Z,5.46
2019-03-19T20:27:44.122Z,5.40
2019-03-19T20:30:15.831Z,5.37
2019-03-19T20:32:45.416Z,5.29
2019-03-19T20:35:14.834Z,5.21
2019-03-19T20:37:44.349Z,5.16
2019-03-19T20:40:14.427Z,5.13
2019-03-19T20:42:44.034Z,5.13
2019-03-19T20:45:13.561Z,5.10
2019-03-19T20:47:42.962Z,5.19
2019-03-19T20:50:15.174Z,4.77
2019-03-19T20:52:44.611Z,4.60
2019-03-19T20:55:14.015Z,4.63
2019-03-19T20:57:43.562Z,4.47
2019-03-19T21:00:15.127Z,4.63
2019-03-19T21:02:44.734Z,4.48
2019-03-19T21:05:14.429Z,4.58
2019-03-19T21:07:43.808Z,4.66
2019-03-19T21:10:15.904Z,4.63
2019-03-19T21:12:45.594Z,4.59
2019-03-19T21:15:20.147Z,4.53
2019-03-19T21:17:49.925Z,4.48
2019-03-19T21:20:19.643Z,4.09
2019-03-19T21:22:49.021Z,4.34
2019-03-19T21:25:18.916Z,4.34
2019-03-19T21:27:48.329Z,4.29
2019-03-19T21:30:17.943Z,4.38
2019-03-19T21:32:47.640Z,4.31
2019-03-19T21:35:19.886Z,4.28
2019-03-19T21:37:49.552Z,4.06
2019-03-19T21:40:18.987Z,4.06
2019-03-19T21:42:48.383Z,4.09
2019-03-19T21:45:17.989Z,4.03
2019-03-19T21:47:47.384Z,3.98
2019-03-19T21:50:17.108Z,4.01
2019-03-19T21:52:46.677Z,4.02
2019-03-19T21:55:16.066Z,3.92
2019-03-19T21:57:45.456Z,3.49
2019-03-19T22:00:16.161Z,3.60
2019-03-19T22:02:45.597Z,3.58
2019-03-19T22:05:15.205Z,3.51
2019-03-19T22:07:44.881Z,3.31
2019-03-19T22:10:14.776Z,3.23
2019-03-19T22:12:44.353Z,3.32
2019-03-19T22:15:15.961Z,3.21
2019-03-19T22:17:45.437Z,3.17
2019-03-19T22:20:15.509Z,3.21
2019-03-19T22:22:44.973Z,3.12
2019-03-19T22:25:14.781Z,3.22
2019-03-19T22:27:44.457Z,3.09
2019-03-19T22:30:15.530Z,3.01
2019-03-19T22:32:45.245Z,3.12
2019-03-19T22:35:14.711Z,3.12
2019-03-19T22:37:44.307Z,3.13
2019-03-19T22:40:14.993Z,3.16
2019-03-19T22:42:44.689Z,3.11
2019-03-19T22:45:14.922Z,2.98
2019-03-19T22:47:44.393Z,2.99
2019-03-19T22:50:14.633Z,3.04
2019-03-19T22:52:44.289Z,2.89
2019-03-19T22:55:13.878Z,3.02
2019-03-19T22:57:43.337Z,2.91
2019-03-19T23:00:38.134Z,3.09
2019-03-19T23:03:08.164Z,3.11
2019-03-19T23:05:37.876Z,3.09
2019-03-19T23:08:07.437Z,3.18
2019-03-19T23:10:37.116Z,3.06
2019-03-19T23:13:06.720Z,2.95
2019-03-19T23:15:36.341Z,2.98
2019-03-19T23:18:05.863Z,2.93
2019-03-19T23:20:35.327Z,2.84
2019-03-19T23:23:04.843Z,2.83
2019-03-19T23:25:34.366Z,2.82
2019-03-19T23:28:04.125Z,2.96
2019-03-19T23:30:33.584Z,2.61
2019-03-19T23:33:03.077Z,2.56
2019-03-19T23:35:32.556Z,2.68
2019-03-19T23:38:02.039Z,2.67
2019-03-19T23:40:31.520Z,2.70
2019-03-19T23:43:00.994Z,2.84
2019-03-19T23:45:30.560Z,2.61
2019-03-19T23:48:00.021Z,2.66
2019-03-19T23:50:29.527Z,2.63
2019-03-19T23:52:59.017Z,2.67
2019-03-19T23:55:28.481Z,2.53
2019-03-19T23:57:57.982Z,2.58
